sensor_id;sensor_type;location;lat;lon;timestamp;pressure;altitude;pressure_sealevel;temperature;humidity
44441;BME280;30146;52.268;20.944;2023-04-24T00:00:19;99465.36;;;14.09;41.78
44441;BME280;30146;52.268;20.944;2023-04-24T00:06:45;99458.14;;;14.03;42.10
44441;BME280;30146;52.268;20.944;2023-04-24T00:09:16;99458.38;;;14.02;42.21
44441;BME280;30146;52.268;20.944;2023-04-24T00:11:45;99450.56;;;14.00;42.30
44441;BME280;30146;52.268;20.944;2023-04-24T00:14:13;99450.11;;;13.98;42.41
44441;BME280;30146;52.268;20.944;2023-04-24T00:16:41;99448.84;;;13.95;42.41
44441;BME280;30146;52.268;20.944;2023-04-24T00:19:09;99446.84;;;13.94;42.55
44441;BME280;30146;52.268;20.944;2023-04-24T00:21:40;99441.75;;;13.92;42.64
44441;BME280;30146;52.268;20.944;2023-04-24T00:24:09;99442.85;;;13.90;42.85
44441;BME280;30146;52.268;20.944;2023-04-24T00:26:37;99437.85;;;13.86;42.80
44441;BME280;30146;52.268;20.944;2023-04-24T00:29:05;99437.39;;;13.84;42.96
44441;BME280;30146;52.268;20.944;2023-04-24T00:31:33;99438.33;;;13.82;43.01
44441;BME280;30146;52.268;20.944;2023-04-24T00:34:02;99439.20;;;13.82;43.22
44441;BME280;30146;52.268;20.944;2023-04-24T00:36:31;99441.77;;;13.82;43.20
44441;BME280;30146;52.268;20.944;2023-04-24T00:39:00;99442.69;;;13.80;43.28
44441;BME280;30146;52.268;20.944;2023-04-24T00:41:28;99442.75;;;13.79;43.40
44441;BME280;30146;52.268;20.944;2023-04-24T00:43:57;99439.40;;;13.77;43.45
44441;BME280;30146;52.268;20.944;2023-04-24T00:46:25;99438.20;;;13.72;43.44
44441;BME280;30146;52.268;20.944;2023-04-24T00:48:54;99438.44;;;13.70;43.60
44441;BME280;30146;52.268;20.944;2023-04-24T00:51:23;99443.54;;;13.67;43.67
44441;BME280;30146;52.268;20.944;2023-04-24T00:53:51;99437.51;;;13.63;43.70
44441;BME280;30146;52.268;20.944;2023-04-24T00:56:20;99441.59;;;13.59;43.83
44441;BME280;30146;52.268;20.944;2023-04-24T00:58:48;99438.98;;;13.55;43.81
44441;BME280;30146;52.268;20.944;2023-04-24T01:01:17;99440.63;;;13.53;43.91
44441;BME280;30146;52.268;20.944;2023-04-24T01:03:49;99437.98;;;13.50;44.05
44441;BME280;30146;52.268;20.944;2023-04-24T01:06:19;99436.32;;;13.48;44.23
44441;BME280;30146;52.268;20.944;2023-04-24T01:08:48;99440.61;;;13.48;44.36
44441;BME280;30146;52.268;20.944;2023-04-24T01:11:16;99438.95;;;13.46;44.30
44441;BME280;30146;52.268;20.944;2023-04-24T01:13:46;99440.04;;;13.45;44.28
44441;BME280;30146;52.268;20.944;2023-04-24T01:16:14;99440.58;;;13.44;44.44
44441;BME280;30146;52.268;20.944;2023-04-24T01:18:45;99439.60;;;13.43;44.47
44441;BME280;30146;52.268;20.944;2023-04-24T01:21:15;99433.80;;;13.42;44.64
44441;BME280;30146;52.268;20.944;2023-04-24T01:23:44;99430.39;;;13.41;44.59
44441;BME280;30146;52.268;20.944;2023-04-24T01:26:16;99426.08;;;13.41;44.65
44441;BME280;30146;52.268;20.944;2023-04-24T01:28:47;99428.16;;;13.41;44.68
44441;BME280;30146;52.268;20.944;2023-04-24T01:31:18;99424.55;;;13.41;44.65
44441;BME280;30146;52.268;20.944;2023-04-24T01:33:51;99422.91;;;13.39;44.66
44441;BME280;30146;52.268;20.944;2023-04-24T01:36:20;99423.17;;;13.36;44.71
44441;BME280;30146;52.268;20.944;2023-04-24T01:39:00;99419.27;;;13.35;44.75
44441;BME280;30146;52.268;20.944;2023-04-24T01:42:27;99413.94;;;13.30;44.92
44441;BME280;30146;52.268;20.944;2023-04-24T01:44:57;99413.96;;;13.29;44.90
44441;BME280;30146;52.268;20.944;2023-04-24T01:47:30;99409.44;;;13.26;44.97
44441;BME280;30146;52.268;20.944;2023-04-24T01:50:06;99404.52;;;13.24;44.99
44441;BME280;30146;52.268;20.944;2023-04-24T01:52:40;99407.16;;;13.22;45.07
44441;BME280;30146;52.268;20.944;2023-04-24T01:55:11;99405.81;;;13.21;45.19
44441;BME280;30146;52.268;20.944;2023-04-24T01:57:39;99400.71;;;13.21;45.14
44441;BME280;30146;52.268;20.944;2023-04-24T02:00:10;99398.40;;;13.18;45.18
44441;BME280;30146;52.268;20.944;2023-04-24T02:03:14;99397.44;;;13.16;45.18
44441;BME280;30146;52.268;20.944;2023-04-24T02:05:44;99396.79;;;13.15;45.22
44441;BME280;30146;52.268;20.944;2023-04-24T02:08:13;99395.09;;;13.14;45.24
44441;BME280;30146;52.268;20.944;2023-04-24T02:10:41;99401.08;;;13.15;45.28
44441;BME280;30146;52.268;20.944;2023-04-24T02:13:09;99407.44;;;13.14;45.38
44441;BME280;30146;52.268;20.944;2023-04-24T02:15:37;99412.40;;;13.15;45.42
44441;BME280;30146;52.268;20.944;2023-04-24T02:18:07;99413.10;;;13.15;45.58
44441;BME280;30146;52.268;20.944;2023-04-24T02:20:36;99404.90;;;13.13;45.64
44441;BME280;30146;52.268;20.944;2023-04-24T02:23:05;99399.35;;;13.15;45.71
44441;BME280;30146;52.268;20.944;2023-04-24T02:25:33;99392.00;;;13.14;45.75
44441;BME280;30146;52.268;20.944;2023-04-24T02:28:01;99393.53;;;13.15;45.72
44441;BME280;30146;52.268;20.944;2023-04-24T02:30:31;99391.98;;;13.15;45.68
44441;BME280;30146;52.268;20.944;2023-04-24T02:32:59;99385.48;;;13.14;45.63
44441;BME280;30146;52.268;20.944;2023-04-24T02:35:28;99380.02;;;13.14;45.66
44441;BME280;30146;52.268;20.944;2023-04-24T02:37:56;99383.42;;;13.14;45.76
44441;BME280;30146;52.268;20.944;2023-04-24T02:40:24;99378.81;;;13.14;45.89
44441;BME280;30146;52.268;20.944;2023-04-24T02:42:52;99379.68;;;13.13;45.99
44441;BME280;30146;52.268;20.944;2023-04-24T02:45:20;99377.80;;;13.13;46.08
44441;BME280;30146;52.268;20.944;2023-04-24T02:47:49;99377.15;;;13.12;46.15
44441;BME280;30146;52.268;20.944;2023-04-24T02:50:17;99379.08;;;13.11;46.15
44441;BME280;30146;52.268;20.944;2023-04-24T02:52:45;99377.63;;;13.08;46.00
44441;BME280;30146;52.268;20.944;2023-04-24T02:55:13;99377.02;;;13.06;46.03
44441;BME280;30146;52.268;20.944;2023-04-24T02:57:41;99376.63;;;13.02;46.00
44441;BME280;30146;52.268;20.944;2023-04-24T03:00:12;99378.10;;;12.99;46.06
44441;BME280;30146;52.268;20.944;2023-04-24T03:02:41;99373.45;;;12.95;46.02
44441;BME280;30146;52.268;20.944;2023-04-24T03:05:09;99375.61;;;12.92;46.15
44441;BME280;30146;52.268;20.944;2023-04-24T03:07:39;99380.21;;;12.88;46.12
44441;BME280;30146;52.268;20.944;2023-04-24T03:10:10;99379.83;;;12.84;46.09
44441;BME280;30146;52.268;20.944;2023-04-24T03:12:38;99376.38;;;12.80;46.14
44441;BME280;30146;52.268;20.944;2023-04-24T03:15:09;99371.88;;;12.76;46.11
44441;BME280;30146;52.268;20.944;2023-04-24T03:17:40;99370.09;;;12.73;46.13
44441;BME280;30146;52.268;20.944;2023-04-24T03:20:09;99371.54;;;12.71;46.27
44441;BME280;30146;52.268;20.944;2023-04-24T03:22:38;99370.03;;;12.69;46.33
44441;BME280;30146;52.268;20.944;2023-04-24T03:25:08;99371.61;;;12.68;46.28
44441;BME280;30146;52.268;20.944;2023-04-24T03:27:38;99372.30;;;12.68;46.37
44441;BME280;30146;52.268;20.944;2023-04-24T03:30:15;99371.30;;;12.68;46.43
44441;BME280;30146;52.268;20.944;2023-04-24T03:32:47;99371.15;;;12.67;46.47
44441;BME280;30146;52.268;20.944;2023-04-24T03:35:18;99376.16;;;12.66;46.46
44441;BME280;30146;52.268;20.944;2023-04-24T03:37:46;99372.41;;;12.65;46.55
44441;BME280;30146;52.268;20.944;2023-04-24T03:40:33;99372.20;;;12.66;46.58
44441;BME280;30146;52.268;20.944;2023-04-24T03:43:02;99373.70;;;12.67;46.66
44441;BME280;30146;52.268;20.944;2023-04-24T03:45:30;99376.04;;;12.70;46.64
44441;BME280;30146;52.268;20.944;2023-04-24T03:47:58;99375.85;;;12.70;46.69
44441;BME280;30146;52.268;20.944;2023-04-24T03:50:27;99373.73;;;12.72;46.69
44441;BME280;30146;52.268;20.944;2023-04-24T03:52:56;99373.80;;;12.75;46.76
44441;BME280;30146;52.268;20.944;2023-04-24T03:55:34;99379.27;;;12.80;46.85
44441;BME280;30146;52.268;20.944;2023-04-24T03:58:03;99373.35;;;12.83;46.85
44441;BME280;30146;52.268;20.944;2023-04-24T04:00:31;99372.71;;;12.87;46.74
44441;BME280;30146;52.268;20.944;2023-04-24T04:03:37;99377.37;;;12.91;46.73
44441;BME280;30146;52.268;20.944;2023-04-24T04:06:06;99376.58;;;12.99;46.79
44441;BME280;30146;52.268;20.944;2023-04-24T04:08:34;99374.80;;;13.11;46.77
44441;BME280;30146;52.268;20.944;2023-04-24T04:11:03;99377.18;;;13.21;46.74
44441;BME280;30146;52.268;20.944;2023-04-24T04:13:32;99381.80;;;13.32;46.57
44441;BME280;30146;52.268;20.944;2023-04-24T04:16:01;99377.39;;;13.54;46.64
44441;BME280;30146;52.268;20.944;2023-04-24T04:18:29;99377.71;;;14.00;46.91
44441;BME280;30146;52.268;20.944;2023-04-24T04:20:58;99379.65;;;14.55;46.65
44441;BME280;30146;52.268;20.944;2023-04-24T04:23:29;99376.49;;;15.10;46.26
44441;BME280;30146;52.268;20.944;2023-04-24T04:26:26;99378.48;;;15.66;45.43
44441;BME280;30146;52.268;20.944;2023-04-24T04:29:17;99380.06;;;16.18;44.94
44441;BME280;30146;52.268;20.944;2023-04-24T04:31:47;99379.49;;;16.68;44.53
44441;BME280;30146;52.268;20.944;2023-04-24T04:34:44;99378.41;;;17.17;43.98
44441;BME280;30146;52.268;20.944;2023-04-24T04:37:13;99374.05;;;17.64;43.03
44441;BME280;30146;52.268;20.944;2023-04-24T04:39:52;99372.73;;;17.98;42.28
44441;BME280;30146;52.268;20.944;2023-04-24T04:42:25;99375.59;;;18.24;41.50
44441;BME280;30146;52.268;20.944;2023-04-24T04:44:55;99372.77;;;18.40;40.91
44441;BME280;30146;52.268;20.944;2023-04-24T04:47:30;99367.31;;;18.60;40.57
44441;BME280;30146;52.268;20.944;2023-04-24T04:50:00;99364.86;;;18.81;40.27
44441;BME280;30146;52.268;20.944;2023-04-24T04:52:28;99363.73;;;19.12;40.07
44441;BME280;30146;52.268;20.944;2023-04-24T04:55:07;99364.57;;;19.36;39.22
44441;BME280;30146;52.268;20.944;2023-04-24T04:57:59;99361.14;;;19.60;39.06
44441;BME280;30146;52.268;20.944;2023-04-24T05:00:27;99360.38;;;19.89;38.72
44441;BME280;30146;52.268;20.944;2023-04-24T05:06:02;99356.48;;;20.65;38.11
44441;BME280;30146;52.268;20.944;2023-04-24T05:08:32;99357.52;;;21.02;37.94
44441;BME280;30146;52.268;20.944;2023-04-24T05:11:00;99351.98;;;21.39;37.43
44441;BME280;30146;52.268;20.944;2023-04-24T05:13:29;99355.46;;;21.79;37.13
44441;BME280;30146;52.268;20.944;2023-04-24T05:16:12;99357.66;;;22.26;36.84
44441;BME280;30146;52.268;20.944;2023-04-24T05:18:41;99357.50;;;22.74;36.72
44441;BME280;30146;52.268;20.944;2023-04-24T05:27:15;99358.80;;;24.92;35.87
44441;BME280;30146;52.268;20.944;2023-04-24T05:29:43;99351.79;;;25.52;35.15
44441;BME280;30146;52.268;20.944;2023-04-24T05:32:12;99353.66;;;26.04;34.26
44441;BME280;30146;52.268;20.944;2023-04-24T05:34:42;99354.11;;;26.49;33.86
44441;BME280;30146;52.268;20.944;2023-04-24T05:37:11;99350.37;;;26.64;32.56
44441;BME280;30146;52.268;20.944;2023-04-24T05:39:39;99350.04;;;26.27;31.71
44441;BME280;30146;52.268;20.944;2023-04-24T05:42:09;99346.09;;;25.69;30.92
44441;BME280;30146;52.268;20.944;2023-04-24T05:44:37;99345.51;;;25.19;31.34
44441;BME280;30146;52.268;20.944;2023-04-24T05:47:11;99346.97;;;24.69;31.08
44441;BME280;30146;52.268;20.944;2023-04-24T05:49:40;99347.77;;;24.10;31.01
44441;BME280;30146;52.268;20.944;2023-04-24T05:52:20;99345.52;;;23.80;31.71
44441;BME280;30146;52.268;20.944;2023-04-24T05:54:49;99344.27;;;23.58;31.64
44441;BME280;30146;52.268;20.944;2023-04-24T05:57:21;99343.16;;;23.12;31.44
44441;BME280;30146;52.268;20.944;2023-04-24T05:59:53;99342.55;;;22.60;31.69
44441;BME280;30146;52.268;20.944;2023-04-24T06:02:22;99341.60;;;22.21;32.12
44441;BME280;30146;52.268;20.944;2023-04-24T06:04:51;99340.36;;;21.95;32.78
44441;BME280;30146;52.268;20.944;2023-04-24T06:07:31;99336.86;;;21.83;33.24
44441;BME280;30146;52.268;20.944;2023-04-24T06:10:03;99338.86;;;22.09;33.97
44441;BME280;30146;52.268;20.944;2023-04-24T06:12:50;99337.00;;;22.51;34.46
44441;BME280;30146;52.268;20.944;2023-04-24T06:15:27;99333.12;;;22.86;34.29
44441;BME280;30146;52.268;20.944;2023-04-24T06:19:12;99332.48;;;23.68;34.45
44441;BME280;30146;52.268;20.944;2023-04-24T06:21:40;99327.26;;;24.45;34.60
44441;BME280;30146;52.268;20.944;2023-04-24T06:24:08;99330.21;;;25.38;34.31
44441;BME280;30146;52.268;20.944;2023-04-24T06:27:04;99328.98;;;26.19;33.38
44441;BME280;30146;52.268;20.944;2023-04-24T06:29:35;99326.29;;;27.13;32.88
44441;BME280;30146;52.268;20.944;2023-04-24T06:32:04;99324.04;;;27.99;32.13
44441;BME280;30146;52.268;20.944;2023-04-24T06:34:33;99321.83;;;28.78;31.69
44441;BME280;30146;52.268;20.944;2023-04-24T06:37:02;99319.86;;;29.55;30.95
44441;BME280;30146;52.268;20.944;2023-04-24T06:39:30;99320.44;;;30.24;30.15
44441;BME280;30146;52.268;20.944;2023-04-24T06:41:59;99317.30;;;30.69;28.61
44441;BME280;30146;52.268;20.944;2023-04-24T06:44:27;99314.48;;;31.01;27.96
44441;BME280;30146;52.268;20.944;2023-04-24T06:46:55;99311.19;;;31.40;27.86
44441;BME280;30146;52.268;20.944;2023-04-24T06:49:24;99310.32;;;31.88;27.42
44441;BME280;30146;52.268;20.944;2023-04-24T06:51:55;99313.77;;;32.23;26.62
44441;BME280;30146;52.268;20.944;2023-04-24T06:54:24;99311.14;;;32.43;26.09
44441;BME280;30146;52.268;20.944;2023-04-24T06:56:52;99312.84;;;32.81;26.16
44441;BME280;30146;52.268;20.944;2023-04-24T06:59:20;99313.23;;;33.14;25.46
44441;BME280;30146;52.268;20.944;2023-04-24T07:01:48;99310.64;;;33.44;25.09
44441;BME280;30146;52.268;20.944;2023-04-24T07:04:17;99308.71;;;33.60;24.53
44441;BME280;30146;52.268;20.944;2023-04-24T07:06:46;99308.51;;;33.83;24.61
44441;BME280;30146;52.268;20.944;2023-04-24T07:09:16;99309.80;;;34.29;24.49
44441;BME280;30146;52.268;20.944;2023-04-24T07:11:45;99309.51;;;34.59;23.77
44441;BME280;30146;52.268;20.944;2023-04-24T07:14:14;99308.99;;;34.81;23.47
44441;BME280;30146;52.268;20.944;2023-04-24T07:16:43;99306.61;;;34.69;22.92
44441;BME280;30146;52.268;20.944;2023-04-24T07:19:11;99303.91;;;34.15;22.42
44441;BME280;30146;52.268;20.944;2023-04-24T07:21:40;99302.77;;;33.55;22.34
44441;BME280;30146;52.268;20.944;2023-04-24T07:24:08;99304.00;;;33.05;22.71
44441;BME280;30146;52.268;20.944;2023-04-24T07:26:38;99301.95;;;32.63;22.95
44441;BME280;30146;52.268;20.944;2023-04-24T07:29:07;99299.65;;;32.18;23.13
44441;BME280;30146;52.268;20.944;2023-04-24T07:31:35;99299.39;;;32.00;23.66
44441;BME280;30146;52.268;20.944;2023-04-24T07:34:03;99300.20;;;31.84;24.05
44441;BME280;30146;52.268;20.944;2023-04-24T07:36:31;99300.55;;;31.62;24.21
44441;BME280;30146;52.268;20.944;2023-04-24T07:38:59;99296.50;;;31.36;23.88
44441;BME280;30146;52.268;20.944;2023-04-24T07:41:28;99298.31;;;30.94;24.29
44441;BME280;30146;52.268;20.944;2023-04-24T07:43:56;99298.48;;;30.49;24.33
44441;BME280;30146;52.268;20.944;2023-04-24T07:46:24;99299.59;;;30.02;24.59
44441;BME280;30146;52.268;20.944;2023-04-24T07:49:01;99297.38;;;29.57;24.95
44441;BME280;30146;52.268;20.944;2023-04-24T07:51:41;99293.02;;;29.18;25.35
44441;BME280;30146;52.268;20.944;2023-04-24T07:54:10;99297.29;;;28.91;25.81
44441;BME280;30146;52.268;20.944;2023-04-24T07:56:43;99294.33;;;28.64;26.02
44441;BME280;30146;52.268;20.944;2023-04-24T07:59:14;99291.23;;;28.37;26.03
44441;BME280;30146;52.268;20.944;2023-04-24T08:01:42;99293.89;;;28.07;26.09
44441;BME280;30146;52.268;20.944;2023-04-24T08:04:10;99290.23;;;27.75;26.07
44441;BME280;30146;52.268;20.944;2023-04-24T08:06:39;99293.59;;;27.45;26.75
44441;BME280;30146;52.268;20.944;2023-04-24T08:09:07;99294.93;;;27.18;26.57
44441;BME280;30146;52.268;20.944;2023-04-24T08:11:35;99295.33;;;26.94;26.84
44441;BME280;30146;52.268;20.944;2023-04-24T08:14:04;99300.77;;;26.66;26.84
44441;BME280;30146;52.268;20.944;2023-04-24T08:16:33;99303.56;;;26.33;27.21
44441;BME280;30146;52.268;20.944;2023-04-24T08:19:01;99306.94;;;25.94;27.43
44441;BME280;30146;52.268;20.944;2023-04-24T08:21:29;99302.14;;;25.55;27.54
44441;BME280;30146;52.268;20.944;2023-04-24T08:23:57;99305.95;;;25.18;28.09
44441;BME280;30146;52.268;20.944;2023-04-24T08:26:25;99308.68;;;24.81;28.48
44441;BME280;30146;52.268;20.944;2023-04-24T08:28:54;99308.09;;;24.47;28.82
44441;BME280;30146;52.268;20.944;2023-04-24T08:31:22;99309.80;;;24.20;29.13
44441;BME280;30146;52.268;20.944;2023-04-24T08:33:52;99309.13;;;23.94;29.62
44441;BME280;30146;52.268;20.944;2023-04-24T08:36:20;99305.12;;;23.72;30.02
44441;BME280;30146;52.268;20.944;2023-04-24T08:38:48;99307.33;;;23.53;30.32
44441;BME280;30146;52.268;20.944;2023-04-24T08:41:18;99306.62;;;23.36;30.75
44441;BME280;30146;52.268;20.944;2023-04-24T08:43:47;99306.36;;;23.21;31.00
44441;BME280;30146;52.268;20.944;2023-04-24T08:46:16;99309.91;;;23.11;31.35
44441;BME280;30146;52.268;20.944;2023-04-24T08:48:44;99311.15;;;22.97;31.37
44441;BME280;30146;52.268;20.944;2023-04-24T08:51:13;99312.95;;;22.78;31.60
44441;BME280;30146;52.268;20.944;2023-04-24T08:53:41;99312.18;;;22.70;32.09
44441;BME280;30146;52.268;20.944;2023-04-24T08:56:09;99312.16;;;22.66;32.30
44441;BME280;30146;52.268;20.944;2023-04-24T08:58:39;99308.83;;;22.66;32.46
44441;BME280;30146;52.268;20.944;2023-04-24T09:01:08;99306.63;;;22.68;32.46
44441;BME280;30146;52.268;20.944;2023-04-24T09:03:37;99306.90;;;22.64;32.72
44441;BME280;30146;52.268;20.944;2023-04-24T09:06:08;99307.21;;;22.64;32.79
44441;BME280;30146;52.268;20.944;2023-04-24T09:08:39;99300.46;;;22.66;33.01
44441;BME280;30146;52.268;20.944;2023-04-24T09:11:09;99302.02;;;22.66;32.95
44441;BME280;30146;52.268;20.944;2023-04-24T09:13:39;99301.73;;;22.68;32.92
44441;BME280;30146;52.268;20.944;2023-04-24T09:16:09;99296.41;;;22.69;33.04
44441;BME280;30146;52.268;20.944;2023-04-24T09:18:37;99293.61;;;22.74;33.32
44441;BME280;30146;52.268;20.944;2023-04-24T09:21:09;99294.11;;;22.83;33.51
44441;BME280;30146;52.268;20.944;2023-04-24T09:23:37;99294.74;;;22.93;33.39
44441;BME280;30146;52.268;20.944;2023-04-24T09:26:06;99287.48;;;22.99;33.33
44441;BME280;30146;52.268;20.944;2023-04-24T09:28:38;99286.98;;;23.19;33.56
44441;BME280;30146;52.268;20.944;2023-04-24T09:31:08;99284.31;;;23.53;33.81
44441;BME280;30146;52.268;20.944;2023-04-24T09:33:37;99281.65;;;23.84;33.29
44441;BME280;30146;52.268;20.944;2023-04-24T09:36:05;99277.79;;;24.01;32.93
44441;BME280;30146;52.268;20.944;2023-04-24T09:38:43;99276.70;;;24.08;32.35
44441;BME280;30146;52.268;20.944;2023-04-24T09:41:14;99272.95;;;24.12;32.04
44441;BME280;30146;52.268;20.944;2023-04-24T09:43:42;99270.23;;;24.09;31.78
44441;BME280;30146;52.268;20.944;2023-04-24T09:46:11;99266.61;;;24.02;31.68
44441;BME280;30146;52.268;20.944;2023-04-24T09:48:39;99270.94;;;24.06;31.82
44441;BME280;30146;52.268;20.944;2023-04-24T09:51:07;99268.75;;;24.22;31.84
44441;BME280;30146;52.268;20.944;2023-04-24T09:53:38;99264.48;;;24.44;31.77
44441;BME280;30146;52.268;20.944;2023-04-24T09:56:08;99258.21;;;24.73;32.01
44441;BME280;30146;52.268;20.944;2023-04-24T09:58:37;99259.19;;;25.02;31.89
44441;BME280;30146;52.268;20.944;2023-04-24T10:01:05;99257.08;;;25.29;31.68
44441;BME280;30146;52.268;20.944;2023-04-24T10:03:34;99254.84;;;25.52;30.94
44441;BME280;30146;52.268;20.944;2023-04-24T10:06:47;99251.48;;;25.70;30.18
44441;BME280;30146;52.268;20.944;2023-04-24T10:09:16;99243.33;;;25.89;30.41
44441;BME280;30146;52.268;20.944;2023-04-24T10:11:46;99243.29;;;26.12;30.26
44441;BME280;30146;52.268;20.944;2023-04-24T10:14:16;99243.00;;;26.33;30.13
44441;BME280;30146;52.268;20.944;2023-04-24T10:16:45;99238.95;;;26.50;29.61
44441;BME280;30146;52.268;20.944;2023-04-24T10:19:16;99235.33;;;26.63;29.46
44441;BME280;30146;52.268;20.944;2023-04-24T10:21:56;99233.55;;;26.78;28.86
44441;BME280;30146;52.268;20.944;2023-04-24T10:24:25;99232.25;;;26.90;28.93
44441;BME280;30146;52.268;20.944;2023-04-24T10:26:54;99223.91;;;27.02;28.69
44441;BME280;30146;52.268;20.944;2023-04-24T10:29:24;99224.60;;;27.09;28.36
44441;BME280;30146;52.268;20.944;2023-04-24T10:31:54;99221.27;;;27.04;27.87
44441;BME280;30146;52.268;20.944;2023-04-24T10:34:23;99221.73;;;26.96;28.13
44441;BME280;30146;52.268;20.944;2023-04-24T10:36:55;99214.25;;;26.89;28.10
44441;BME280;30146;52.268;20.944;2023-04-24T10:42:16;99210.57;;;26.75;27.96
44441;BME280;30146;52.268;20.944;2023-04-24T10:44:48;99206.48;;;26.60;27.84
44441;BME280;30146;52.268;20.944;2023-04-24T10:47:16;99202.98;;;26.41;27.99
44441;BME280;30146;52.268;20.944;2023-04-24T10:49:51;99202.58;;;26.27;28.33
44441;BME280;30146;52.268;20.944;2023-04-24T10:52:20;99196.45;;;26.15;28.54
44441;BME280;30146;52.268;20.944;2023-04-24T10:54:49;99199.21;;;26.10;28.49
44441;BME280;30146;52.268;20.944;2023-04-24T10:57:34;99193.86;;;26.03;28.54
44441;BME280;30146;52.268;20.944;2023-04-24T11:00:19;99194.79;;;25.89;28.38
44441;BME280;30146;52.268;20.944;2023-04-24T11:02:48;99192.27;;;25.76;28.70
44441;BME280;30146;52.268;20.944;2023-04-24T11:05:21;99193.09;;;25.65;28.76
44441;BME280;30146;52.268;20.944;2023-04-24T11:08:21;99188.98;;;25.55;29.63
44441;BME280;30146;52.268;20.944;2023-04-24T11:11:14;99186.19;;;25.43;29.44
44441;BME280;30146;52.268;20.944;2023-04-24T11:14:05;99190.24;;;25.21;28.71
44441;BME280;30146;52.268;20.944;2023-04-24T11:16:44;99198.60;;;24.81;28.49
44441;BME280;30146;52.268;20.944;2023-04-24T11:19:22;99192.58;;;24.43;28.86
44441;BME280;30146;52.268;20.944;2023-04-24T11:26:11;99186.52;;;24.12;29.79
44441;BME280;30146;52.268;20.944;2023-04-24T11:31:53;99180.73;;;24.16;29.75
44441;BME280;30146;52.268;20.944;2023-04-24T11:34:21;99183.08;;;24.17;29.52
44441;BME280;30146;52.268;20.944;2023-04-24T11:36:50;99178.69;;;24.17;29.42
44441;BME280;30146;52.268;20.944;2023-04-24T11:39:18;99177.13;;;24.17;29.24
44441;BME280;30146;52.268;20.944;2023-04-24T11:41:47;99179.64;;;24.16;29.33
44441;BME280;30146;52.268;20.944;2023-04-24T11:47:17;99180.77;;;24.14;29.24
44441;BME280;30146;52.268;20.944;2023-04-24T11:49:45;99175.61;;;24.08;29.02
44441;BME280;30146;52.268;20.944;2023-04-24T11:52:16;99179.51;;;23.95;28.91
44441;BME280;30146;52.268;20.944;2023-04-24T11:54:49;99174.96;;;23.81;28.75
44441;BME280;30146;52.268;20.944;2023-04-24T11:57:49;99168.21;;;23.75;28.99
44441;BME280;30146;52.268;20.944;2023-04-24T12:00:21;99163.98;;;23.78;29.10
44441;BME280;30146;52.268;20.944;2023-04-24T12:02:50;99161.13;;;23.79;28.86
44441;BME280;30146;52.268;20.944;2023-04-24T12:05:24;99159.52;;;23.80;28.68
44441;BME280;30146;52.268;20.944;2023-04-24T12:07:54;99163.78;;;23.83;28.53
44441;BME280;30146;52.268;20.944;2023-04-24T12:10:24;99161.16;;;23.81;28.11
44441;BME280;30146;52.268;20.944;2023-04-24T12:12:53;99156.05;;;23.79;27.97
44441;BME280;30146;52.268;20.944;2023-04-24T12:15:26;99137.06;;;23.77;28.20
44441;BME280;30146;52.268;20.944;2023-04-24T12:17:58;99141.20;;;23.79;28.40
44441;BME280;30146;52.268;20.944;2023-04-24T12:20:28;99140.45;;;23.80;28.20
44441;BME280;30146;52.268;20.944;2023-04-24T12:22:57;99138.95;;;23.81;28.26
44441;BME280;30146;52.268;20.944;2023-04-24T12:25:27;99133.63;;;23.80;28.22
44441;BME280;30146;52.268;20.944;2023-04-24T12:28:09;99126.73;;;23.79;28.45
44441;BME280;30146;52.268;20.944;2023-04-24T12:30:41;99136.20;;;23.81;28.35
44441;BME280;30146;52.268;20.944;2023-04-24T12:33:10;99129.17;;;23.75;28.11
44441;BME280;30146;52.268;20.944;2023-04-24T12:38:30;99123.27;;;23.64;27.68
44441;BME280;30146;52.268;20.944;2023-04-24T12:41:05;99126.13;;;23.59;27.86
44441;BME280;30146;52.268;20.944;2023-04-24T12:43:34;99120.95;;;23.54;27.94
44441;BME280;30146;52.268;20.944;2023-04-24T12:46:05;99115.41;;;23.51;28.03
44441;BME280;30146;52.268;20.944;2023-04-24T12:48:33;99115.05;;;23.50;27.92
44441;BME280;30146;52.268;20.944;2023-04-24T12:51:01;99126.95;;;23.47;27.90
44441;BME280;30146;52.268;20.944;2023-04-24T12:53:30;99158.30;;;23.43;28.30
44441;BME280;30146;52.268;20.944;2023-04-24T12:55:58;99143.48;;;23.31;28.59
44441;BME280;30146;52.268;20.944;2023-04-24T12:58:27;99160.92;;;23.15;28.83
44441;BME280;30146;52.268;20.944;2023-04-24T13:00:56;99160.94;;;22.95;29.07
44441;BME280;30146;52.268;20.944;2023-04-24T13:03:25;99163.34;;;22.71;29.19
44441;BME280;30146;52.268;20.944;2023-04-24T13:05:53;99167.05;;;22.46;29.48
44441;BME280;30146;52.268;20.944;2023-04-24T13:08:22;99171.45;;;22.20;29.76
44441;BME280;30146;52.268;20.944;2023-04-24T13:10:50;99167.52;;;21.98;30.00
44441;BME280;30146;52.268;20.944;2023-04-24T13:13:19;99167.55;;;21.82;30.44
44441;BME280;30146;52.268;20.944;2023-04-24T13:15:51;99168.52;;;21.66;30.56
44441;BME280;30146;52.268;20.944;2023-04-24T13:18:19;99171.25;;;21.50;30.72
44441;BME280;30146;52.268;20.944;2023-04-24T13:20:47;99169.03;;;21.35;31.00
44441;BME280;30146;52.268;20.944;2023-04-24T13:23:15;99164.14;;;21.26;31.04
44441;BME280;30146;52.268;20.944;2023-04-24T13:25:44;99157.21;;;21.16;31.23
44441;BME280;30146;52.268;20.944;2023-04-24T13:28:12;99156.23;;;21.05;31.32
44441;BME280;30146;52.268;20.944;2023-04-24T13:30:41;99151.67;;;20.96;31.60
44441;BME280;30146;52.268;20.944;2023-04-24T13:33:09;99148.98;;;20.90;31.78
44441;BME280;30146;52.268;20.944;2023-04-24T13:35:38;99148.89;;;20.84;31.81
44441;BME280;30146;52.268;20.944;2023-04-24T13:38:06;99151.48;;;20.82;31.79
44441;BME280;30146;52.268;20.944;2023-04-24T13:40:34;99147.89;;;20.79;31.90